Spring Lake Heights, New Jersey
Current Conditions -  °F | °C
As of 3:15 PM on Friday 21 Nov 2014 (Local Time) from KBLM Reporting Station
Clear Clear  
Wind Chill: -3°   Ceiling: Unl
Heat Index:   Visibility: 10mi
Dew Point: -13°   Wind: 13mph
Humidity: 33%   Direction: 310°NW
Pressure: 30.36"   Gusts: 18mph
Location:  40.1528°N, 74.0364°W
Report Text: KBLM 212015Z AUTO 31011G16KT 10SM CLR 02/M13 A3036 RMK AO1
Loading
Personal Weather Stations






























Interactive Weather Map New forecast layout! Learn more

10-Day Weather Forecast

Advertisements
Track Severe Weather on mobile